الصفحة الرئيسية
METAR-TAF:

METAR-TAF

مطار :

قاعدة بيروت الجوية

بيروت, لبنان

دائرة عرض: 33-49N, خط طول: 035-29E, ارتفاع: 29 متر

مراقبة الطقس الحالي

تاريخ ووقت الإصدار 33 دقيقة قبل الساعة 06:00UTC
ريح 10 عقدة من الغرب/الجنوب الغربي
درجة الحرارة 28°درجة مئوية
الرطوبة 74%
ضغط 1006 hPa
الرؤية: 7000 متر

METAR: OLBA 160600Z 24010KT 7000 NSC 28/23 Q1006 NOSIG

زمن: 09:33 (06:33 UTC)

توقعات

تاريخ ووقت الإصدار 2ساعات و 33 دقيقة قبل الساعة 04:00UTC
التوقعات صالحة من16 الساعة 06 UTC إلى 17 الساعة 12 UTC
ريح 10 عقدة من الجنوب الغربي تتزايد حتى 20 عقدة
الرؤية: 8000 متر
غيوم متفرقة على ارتفاع 7000 قدم
أصبح
من 16 الساعة 20 UTC إلى 16 الساعة 22 UTC
ريح 6 عقدة من الجنوب الشرقي
مؤقت
من 16 الساعة 20 UTC إلى 17 الساعة 06 UTC
الرؤية: 5000 متر
غشاء
أصبح
من 17 الساعة 08 UTC إلى 17 الساعة 10 UTC
ريح 10 عقدة من الجنوب الغربي

TAF: OLBA 160400Z 1606/1712 23010G20KT 8000 SCT070 BECMG 1620/1622 14006KT TEMPO 1620/1706 5000 BR BECMG 1708/1710 23010KT

أرصاد الطقس والتوقعات من أكثر من 4000 مطار (تقارير الطقس للمطار METAR والتنبؤ بالطقس بالمطارTAF).

المحطات المتاحة هي النقط الصفراء والحمراء على الخريطة.

حرك المؤشر فوق النقطة لمعرفة اسم المحطة.

ثم انقر لمعرفة أرصاد وتوقعات الطقس.

لتغيير الخارطة: اضغط على الأزرار الخضراء مع رمز الصليب الأسود للتكبير. على الزر الأخضر مع شرطة للتصغير، أو على الأسهم الخضراء للخرائط المجاورة.


METAR-TAF: